Terminal Aerodrome Forecast
Issued by NWS Binghamton, NY

Home | Current Version | Previous Version | Text Only | Print | Product List | Glossary On
Versions: 1 2 3 4 5 6 7 8 9 10 11 12 13 14 15 16 17 18 19 20 21 22 23
687
FTUS41 KBGM 102342
TAFBGM
TAF
KBGM 102342Z 1100/1124 29008KT 2SM -SHSN OVC025
      TEMPO 1100/1101 1/2SM SHSN OVC009
     FM110200 30008KT P6SM -SHSN OVC025
     FM111200 30012G20KT P6SM -SHSN OVC020=

USA.gov is the U.S. government's official web portal to all federal, state and local government web resources and services.